sensor_id;sensor_type;location;lat;lon;timestamp;P1;durP1;ratioP1;P2;durP2;ratioP2
74908;SDS011;63468;52.058;4.824;2023-02-16T00:01:55;99.47;;;43.95;;
74908;SDS011;63468;52.058;4.824;2023-02-16T00:04:25;100.78;;;41.15;;
74908;SDS011;63468;52.058;4.824;2023-02-16T00:06:52;100.60;;;41.25;;
74908;SDS011;63468;52.058;4.824;2023-02-16T00:09:18;104.80;;;42.55;;
74908;SDS011;63468;52.058;4.824;2023-02-16T00:11:44;93.70;;;39.67;;
74908;SDS011;63468;52.058;4.824;2023-02-16T00:14:29;85.18;;;39.03;;
74908;SDS011;63468;52.058;4.824;2023-02-16T00:16:55;106.85;;;41.08;;
74908;SDS011;63468;52.058;4.824;2023-02-16T00:19:35;102.45;;;42.15;;
74908;SDS011;63468;52.058;4.824;2023-02-16T00:22:02;90.55;;;40.40;;
74908;SDS011;63468;52.058;4.824;2023-02-16T00:24:29;102.43;;;40.45;;
74908;SDS011;63468;52.058;4.824;2023-02-16T00:26:55;105.35;;;41.70;;
74908;SDS011;63468;52.058;4.824;2023-02-16T00:31:49;102.75;;;42.17;;
74908;SDS011;63468;52.058;4.824;2023-02-16T00:36:57;100.40;;;44.40;;
74908;SDS011;63468;52.058;4.824;2023-02-16T00:39:24;106.90;;;41.28;;
74908;SDS011;63468;52.058;4.824;2023-02-16T00:41:52;101.03;;;43.10;;
74908;SDS011;63468;52.058;4.824;2023-02-16T00:44:26;110.03;;;45.10;;
74908;SDS011;63468;52.058;4.824;2023-02-16T00:46:55;110.90;;;43.45;;
74908;SDS011;63468;52.058;4.824;2023-02-16T00:49:21;106.85;;;41.08;;
74908;SDS011;63468;52.058;4.824;2023-02-16T00:51:47;105.22;;;42.10;;
74908;SDS011;63468;52.058;4.824;2023-02-16T00:54:13;108.75;;;43.95;;
74908;SDS011;63468;52.058;4.824;2023-02-16T00:56:38;109.47;;;43.60;;
74908;SDS011;63468;52.058;4.824;2023-02-16T00:59:05;102.97;;;40.42;;
74908;SDS011;63468;52.058;4.824;2023-02-16T01:01:32;103.60;;;42.38;;
74908;SDS011;63468;52.058;4.824;2023-02-16T01:03:58;100.40;;;43.45;;
74908;SDS011;63468;52.058;4.824;2023-02-16T01:06:25;109.40;;;43.50;;
74908;SDS011;63468;52.058;4.824;2023-02-16T01:09:14;99.22;;;40.35;;
74908;SDS011;63468;52.058;4.824;2023-02-16T01:12:00;101.28;;;42.05;;
74908;SDS011;63468;52.058;4.824;2023-02-16T01:14:25;105.82;;;42.88;;
74908;SDS011;63468;52.058;4.824;2023-02-16T01:16:51;107.07;;;43.67;;
74908;SDS011;63468;52.058;4.824;2023-02-16T01:19:16;117.07;;;44.53;;
74908;SDS011;63468;52.058;4.824;2023-02-16T01:21:42;116.97;;;44.60;;
74908;SDS011;63468;52.058;4.824;2023-02-16T01:24:07;101.90;;;42.03;;
74908;SDS011;63468;52.058;4.824;2023-02-16T01:26:36;101.15;;;45.95;;
74908;SDS011;63468;52.058;4.824;2023-02-16T01:29:03;109.50;;;43.28;;
74908;SDS011;63468;52.058;4.824;2023-02-16T01:31:28;99.63;;;40.35;;
74908;SDS011;63468;52.058;4.824;2023-02-16T01:33:54;103.82;;;43.58;;
74908;SDS011;63468;52.058;4.824;2023-02-16T01:36:23;96.30;;;37.42;;
74908;SDS011;63468;52.058;4.824;2023-02-16T01:38:51;94.03;;;41.20;;
74908;SDS011;63468;52.058;4.824;2023-02-16T01:41:18;94.72;;;37.95;;
74908;SDS011;63468;52.058;4.824;2023-02-16T01:43:50;99.05;;;41.90;;
74908;SDS011;63468;52.058;4.824;2023-02-16T01:46:21;109.43;;;43.85;;
74908;SDS011;63468;52.058;4.824;2023-02-16T01:48:52;91.55;;;39.42;;
74908;SDS011;63468;52.058;4.824;2023-02-16T01:51:20;88.13;;;39.58;;
74908;SDS011;63468;52.058;4.824;2023-02-16T01:53:50;90.10;;;41.13;;
74908;SDS011;63468;52.058;4.824;2023-02-16T01:56:18;99.35;;;41.78;;
74908;SDS011;63468;52.058;4.824;2023-02-16T01:58:51;92.20;;;40.05;;
74908;SDS011;63468;52.058;4.824;2023-02-16T02:01:27;92.78;;;40.78;;
74908;SDS011;63468;52.058;4.824;2023-02-16T02:03:53;96.15;;;38.00;;
74908;SDS011;63468;52.058;4.824;2023-02-16T02:06:36;86.35;;;38.10;;
74908;SDS011;63468;52.058;4.824;2023-02-16T02:09:04;85.70;;;37.42;;
74908;SDS011;63468;52.058;4.824;2023-02-16T02:11:33;93.10;;;39.58;;
74908;SDS011;63468;52.058;4.824;2023-02-16T02:14:24;100.68;;;41.10;;
74908;SDS011;63468;52.058;4.824;2023-02-16T02:16:55;81.47;;;37.75;;
74908;SDS011;63468;52.058;4.824;2023-02-16T02:19:22;87.63;;;40.70;;
74908;SDS011;63468;52.058;4.824;2023-02-16T02:25:02;84.95;;;38.25;;
74908;SDS011;63468;52.058;4.824;2023-02-16T02:27:35;88.38;;;37.35;;
74908;SDS011;63468;52.058;4.824;2023-02-16T02:40:52;83.05;;;36.45;;
74908;SDS011;63468;52.058;4.824;2023-02-16T02:48:52;100.40;;;39.33;;
74908;SDS011;63468;52.058;4.824;2023-02-16T02:51:17;84.43;;;38.28;;
74908;SDS011;63468;52.058;4.824;2023-02-16T02:54:05;91.82;;;38.28;;
74908;SDS011;63468;52.058;4.824;2023-02-16T02:56:53;80.88;;;37.72;;
74908;SDS011;63468;52.058;4.824;2023-02-16T02:59:43;91.10;;;37.75;;
74908;SDS011;63468;52.058;4.824;2023-02-16T03:02:48;81.97;;;35.85;;
74908;SDS011;63468;52.058;4.824;2023-02-16T03:05:15;77.07;;;37.45;;
74908;SDS011;63468;52.058;4.824;2023-02-16T03:07:43;76.93;;;34.72;;
74908;SDS011;63468;52.058;4.824;2023-02-16T03:10:16;78.32;;;36.70;;
74908;SDS011;63468;52.058;4.824;2023-02-16T03:13:03;76.13;;;35.80;;
74908;SDS011;63468;52.058;4.824;2023-02-16T03:15:31;82.38;;;36.65;;
74908;SDS011;63468;52.058;4.824;2023-02-16T03:17:57;77.35;;;34.92;;
74908;SDS011;63468;52.058;4.824;2023-02-16T03:20:42;80.57;;;34.63;;
74908;SDS011;63468;52.058;4.824;2023-02-16T03:23:28;66.57;;;33.33;;
74908;SDS011;63468;52.058;4.824;2023-02-16T03:26:12;77.35;;;35.80;;
74908;SDS011;63468;52.058;4.824;2023-02-16T03:28:56;86.90;;;35.33;;
74908;SDS011;63468;52.058;4.824;2023-02-16T03:31:41;82.75;;;35.75;;
74908;SDS011;63468;52.058;4.824;2023-02-16T03:34:07;76.28;;;34.50;;
74908;SDS011;63468;52.058;4.824;2023-02-16T03:36:34;80.18;;;36.90;;
74908;SDS011;63468;52.058;4.824;2023-02-16T03:39:01;79.47;;;33.40;;
74908;SDS011;63468;52.058;4.824;2023-02-16T03:41:30;79.65;;;35.00;;
74908;SDS011;63468;52.058;4.824;2023-02-16T03:43:57;76.32;;;34.40;;
74908;SDS011;63468;52.058;4.824;2023-02-16T03:46:22;73.88;;;34.33;;
74908;SDS011;63468;52.058;4.824;2023-02-16T03:48:47;81.57;;;35.45;;
74908;SDS011;63468;52.058;4.824;2023-02-16T03:51:13;77.15;;;33.95;;
74908;SDS011;63468;52.058;4.824;2023-02-16T03:53:38;70.43;;;32.67;;
74908;SDS011;63468;52.058;4.824;2023-02-16T03:56:04;69.80;;;33.58;;
74908;SDS011;63468;52.058;4.824;2023-02-16T03:58:29;74.05;;;35.25;;
74908;SDS011;63468;52.058;4.824;2023-02-16T04:00:54;87.65;;;37.50;;
74908;SDS011;63468;52.058;4.824;2023-02-16T04:03:20;76.15;;;34.15;;
74908;SDS011;63468;52.058;4.824;2023-02-16T04:05:46;73.68;;;35.65;;
74908;SDS011;63468;52.058;4.824;2023-02-16T04:08:11;74.72;;;34.90;;
74908;SDS011;63468;52.058;4.824;2023-02-16T04:10:37;82.25;;;36.55;;
74908;SDS011;63468;52.058;4.824;2023-02-16T04:13:03;73.15;;;34.95;;
74908;SDS011;63468;52.058;4.824;2023-02-16T04:15:28;80.47;;;38.10;;
74908;SDS011;63468;52.058;4.824;2023-02-16T04:17:55;82.47;;;35.80;;
74908;SDS011;63468;52.058;4.824;2023-02-16T04:20:21;72.97;;;35.10;;
74908;SDS011;63468;52.058;4.824;2023-02-16T04:22:48;74.45;;;35.90;;
74908;SDS011;63468;52.058;4.824;2023-02-16T04:25:14;78.40;;;36.13;;
74908;SDS011;63468;52.058;4.824;2023-02-16T04:27:41;74.18;;;35.05;;
74908;SDS011;63468;52.058;4.824;2023-02-16T04:30:08;79.22;;;34.70;;
74908;SDS011;63468;52.058;4.824;2023-02-16T04:32:35;73.78;;;35.28;;
74908;SDS011;63468;52.058;4.824;2023-02-16T04:35:00;78.88;;;37.05;;
74908;SDS011;63468;52.058;4.824;2023-02-16T04:37:26;90.38;;;39.40;;
74908;SDS011;63468;52.058;4.824;2023-02-16T04:39:51;77.65;;;35.05;;
74908;SDS011;63468;52.058;4.824;2023-02-16T04:42:16;81.97;;;35.80;;
74908;SDS011;63468;52.058;4.824;2023-02-16T04:44:42;84.18;;;35.78;;
74908;SDS011;63468;52.058;4.824;2023-02-16T04:47:08;79.00;;;36.25;;
74908;SDS011;63468;52.058;4.824;2023-02-16T04:49:34;71.57;;;35.47;;
74908;SDS011;63468;52.058;4.824;2023-02-16T04:51:59;83.57;;;36.42;;
74908;SDS011;63468;52.058;4.824;2023-02-16T04:54:25;80.95;;;37.75;;
74908;SDS011;63468;52.058;4.824;2023-02-16T04:56:51;79.03;;;37.55;;
74908;SDS011;63468;52.058;4.824;2023-02-16T04:59:17;84.20;;;37.53;;
74908;SDS011;63468;52.058;4.824;2023-02-16T05:01:42;75.00;;;38.05;;
74908;SDS011;63468;52.058;4.824;2023-02-16T05:04:07;79.80;;;37.35;;
74908;SDS011;63468;52.058;4.824;2023-02-16T05:06:34;86.15;;;39.15;;
74908;SDS011;63468;52.058;4.824;2023-02-16T05:09:00;80.20;;;35.05;;
74908;SDS011;63468;52.058;4.824;2023-02-16T05:11:28;81.95;;;38.60;;
74908;SDS011;63468;52.058;4.824;2023-02-16T05:14:17;78.82;;;36.13;;
74908;SDS011;63468;52.058;4.824;2023-02-16T05:17:02;88.85;;;38.97;;
74908;SDS011;63468;52.058;4.824;2023-02-16T05:19:27;78.43;;;36.08;;
74908;SDS011;63468;52.058;4.824;2023-02-16T05:21:53;77.70;;;36.33;;
74908;SDS011;63468;52.058;4.824;2023-02-16T05:24:18;72.72;;;35.67;;
74908;SDS011;63468;52.058;4.824;2023-02-16T05:26:43;85.70;;;38.58;;
74908;SDS011;63468;52.058;4.824;2023-02-16T05:29:11;76.13;;;37.30;;
74908;SDS011;63468;52.058;4.824;2023-02-16T05:31:36;77.70;;;36.72;;
74908;SDS011;63468;52.058;4.824;2023-02-16T05:34:02;83.43;;;39.70;;
74908;SDS011;63468;52.058;4.824;2023-02-16T05:36:27;83.22;;;37.58;;
74908;SDS011;63468;52.058;4.824;2023-02-16T05:38:52;80.97;;;36.85;;
74908;SDS011;63468;52.058;4.824;2023-02-16T05:41:18;82.75;;;34.50;;
74908;SDS011;63468;52.058;4.824;2023-02-16T05:43:49;86.45;;;36.55;;
74908;SDS011;63468;52.058;4.824;2023-02-16T05:46:16;81.68;;;35.75;;
74908;SDS011;63468;52.058;4.824;2023-02-16T05:48:41;79.65;;;38.53;;
74908;SDS011;63468;52.058;4.824;2023-02-16T05:51:06;91.22;;;40.03;;
74908;SDS011;63468;52.058;4.824;2023-02-16T05:53:32;76.50;;;37.67;;
74908;SDS011;63468;52.058;4.824;2023-02-16T05:55:57;69.03;;;37.58;;
74908;SDS011;63468;52.058;4.824;2023-02-16T05:58:22;82.28;;;37.75;;
74908;SDS011;63468;52.058;4.824;2023-02-16T06:00:48;77.85;;;38.22;;
74908;SDS011;63468;52.058;4.824;2023-02-16T06:03:13;85.00;;;40.30;;
74908;SDS011;63468;52.058;4.824;2023-02-16T06:05:38;77.03;;;39.65;;
74908;SDS011;63468;52.058;4.824;2023-02-16T06:08:04;77.50;;;39.13;;
74908;SDS011;63468;52.058;4.824;2023-02-16T06:10:29;81.55;;;38.10;;
74908;SDS011;63468;52.058;4.824;2023-02-16T06:12:54;83.95;;;39.60;;
74908;SDS011;63468;52.058;4.824;2023-02-16T06:15:20;83.90;;;40.83;;
74908;SDS011;63468;52.058;4.824;2023-02-16T06:17:45;81.68;;;36.50;;
74908;SDS011;63468;52.058;4.824;2023-02-16T06:20:10;84.13;;;37.92;;
74908;SDS011;63468;52.058;4.824;2023-02-16T06:22:36;78.47;;;38.80;;
74908;SDS011;63468;52.058;4.824;2023-02-16T06:25:01;77.47;;;37.38;;
74908;SDS011;63468;52.058;4.824;2023-02-16T06:27:27;87.07;;;37.25;;
74908;SDS011;63468;52.058;4.824;2023-02-16T06:29:52;79.63;;;37.22;;
74908;SDS011;63468;52.058;4.824;2023-02-16T06:32:18;85.47;;;36.78;;
74908;SDS011;63468;52.058;4.824;2023-02-16T06:34:43;78.28;;;38.88;;
74908;SDS011;63468;52.058;4.824;2023-02-16T06:37:09;79.13;;;38.78;;
74908;SDS011;63468;52.058;4.824;2023-02-16T06:39:34;73.47;;;36.35;;
74908;SDS011;63468;52.058;4.824;2023-02-16T06:41:59;79.25;;;38.03;;
74908;SDS011;63468;52.058;4.824;2023-02-16T06:44:24;81.43;;;37.20;;
74908;SDS011;63468;52.058;4.824;2023-02-16T06:46:50;79.03;;;37.15;;
74908;SDS011;63468;52.058;4.824;2023-02-16T06:49:16;70.57;;;38.17;;
74908;SDS011;63468;52.058;4.824;2023-02-16T06:51:43;81.53;;;36.58;;
74908;SDS011;63468;52.058;4.824;2023-02-16T06:54:09;72.80;;;34.85;;
74908;SDS011;63468;52.058;4.824;2023-02-16T06:56:34;80.45;;;35.22;;
74908;SDS011;63468;52.058;4.824;2023-02-16T06:59:00;70.28;;;34.65;;
74908;SDS011;63468;52.058;4.824;2023-02-16T07:01:26;80.50;;;37.10;;
74908;SDS011;63468;52.058;4.824;2023-02-16T07:03:51;72.38;;;37.00;;
74908;SDS011;63468;52.058;4.824;2023-02-16T07:06:18;76.20;;;35.80;;
74908;SDS011;63468;52.058;4.824;2023-02-16T07:08:44;79.82;;;38.42;;
74908;SDS011;63468;52.058;4.824;2023-02-16T07:11:09;85.18;;;38.63;;
74908;SDS011;63468;52.058;4.824;2023-02-16T07:13:35;82.95;;;38.78;;
74908;SDS011;63468;52.058;4.824;2023-02-16T07:16:03;82.07;;;37.90;;
74908;SDS011;63468;52.058;4.824;2023-02-16T07:18:30;86.53;;;39.10;;
74908;SDS011;63468;52.058;4.824;2023-02-16T07:20:55;79.35;;;36.67;;
74908;SDS011;63468;52.058;4.824;2023-02-16T07:23:21;77.65;;;37.38;;
74908;SDS011;63468;52.058;4.824;2023-02-16T07:25:46;90.53;;;39.42;;
74908;SDS011;63468;52.058;4.824;2023-02-16T07:28:12;74.50;;;36.42;;
74908;SDS011;63468;52.058;4.824;2023-02-16T07:30:37;68.75;;;35.83;;
74908;SDS011;63468;52.058;4.824;2023-02-16T07:33:03;80.28;;;37.65;;
74908;SDS011;63468;52.058;4.824;2023-02-16T07:35:28;88.13;;;38.92;;
74908;SDS011;63468;52.058;4.824;2023-02-16T07:37:53;80.75;;;38.42;;
74908;SDS011;63468;52.058;4.824;2023-02-16T07:40:19;78.13;;;35.45;;
74908;SDS011;63468;52.058;4.824;2023-02-16T07:42:44;78.95;;;35.97;;
74908;SDS011;63468;52.058;4.824;2023-02-16T07:45:09;85.70;;;38.78;;
74908;SDS011;63468;52.058;4.824;2023-02-16T07:47:35;83.72;;;38.03;;
74908;SDS011;63468;52.058;4.824;2023-02-16T07:50:00;77.95;;;37.60;;
74908;SDS011;63468;52.058;4.824;2023-02-16T07:52:25;70.25;;;37.10;;
74908;SDS011;63468;52.058;4.824;2023-02-16T07:54:55;81.93;;;37.10;;
74908;SDS011;63468;52.058;4.824;2023-02-16T07:57:23;69.70;;;37.20;;
74908;SDS011;63468;52.058;4.824;2023-02-16T07:59:49;74.80;;;36.60;;
74908;SDS011;63468;52.058;4.824;2023-02-16T08:02:16;76.18;;;39.33;;
74908;SDS011;63468;52.058;4.824;2023-02-16T08:04:43;83.63;;;38.22;;
74908;SDS011;63468;52.058;4.824;2023-02-16T08:07:12;74.13;;;38.53;;
74908;SDS011;63468;52.058;4.824;2023-02-16T08:09:38;81.35;;;39.90;;
74908;SDS011;63468;52.058;4.824;2023-02-16T08:12:04;84.47;;;38.90;;
74908;SDS011;63468;52.058;4.824;2023-02-16T08:14:32;78.70;;;38.47;;
74908;SDS011;63468;52.058;4.824;2023-02-16T08:16:58;78.13;;;36.53;;
74908;SDS011;63468;52.058;4.824;2023-02-16T08:19:23;85.10;;;39.15;;
74908;SDS011;63468;52.058;4.824;2023-02-16T08:21:48;70.35;;;36.97;;
74908;SDS011;63468;52.058;4.824;2023-02-16T08:24:15;75.00;;;34.70;;
74908;SDS011;63468;52.058;4.824;2023-02-16T08:26:41;73.68;;;37.38;;
74908;SDS011;63468;52.058;4.824;2023-02-16T08:29:07;86.70;;;40.13;;
74908;SDS011;63468;52.058;4.824;2023-02-16T08:31:39;83.43;;;38.90;;
74908;SDS011;63468;52.058;4.824;2023-02-16T08:34:05;74.40;;;39.97;;
74908;SDS011;63468;52.058;4.824;2023-02-16T08:36:32;80.63;;;38.90;;
74908;SDS011;63468;52.058;4.824;2023-02-16T08:38:59;82.32;;;41.00;;
74908;SDS011;63468;52.058;4.824;2023-02-16T08:41:33;76.53;;;39.70;;
74908;SDS011;63468;52.058;4.824;2023-02-16T08:43:59;82.20;;;40.00;;
74908;SDS011;63468;52.058;4.824;2023-02-16T08:46:26;82.88;;;41.08;;
74908;SDS011;63468;52.058;4.824;2023-02-16T08:48:53;88.88;;;42.05;;
74908;SDS011;63468;52.058;4.824;2023-02-16T08:51:22;86.88;;;43.47;;
74908;SDS011;63468;52.058;4.824;2023-02-16T08:53:47;88.30;;;41.20;;
74908;SDS011;63468;52.058;4.824;2023-02-16T08:56:13;83.82;;;43.20;;
74908;SDS011;63468;52.058;4.824;2023-02-16T08:58:40;89.97;;;43.45;;
74908;SDS011;63468;52.058;4.824;2023-02-16T09:01:06;90.15;;;42.63;;
74908;SDS011;63468;52.058;4.824;2023-02-16T09:03:32;107.28;;;48.03;;
74908;SDS011;63468;52.058;4.824;2023-02-16T09:06:03;111.82;;;49.13;;
74908;SDS011;63468;52.058;4.824;2023-02-16T09:08:29;97.20;;;44.08;;
74908;SDS011;63468;52.058;4.824;2023-02-16T09:11:00;106.47;;;47.35;;
74908;SDS011;63468;52.058;4.824;2023-02-16T09:13:31;99.22;;;45.92;;
74908;SDS011;63468;52.058;4.824;2023-02-16T09:16:02;89.85;;;48.55;;
74908;SDS011;63468;52.058;4.824;2023-02-16T09:18:31;94.97;;;48.75;;
74908;SDS011;63468;52.058;4.824;2023-02-16T09:21:11;109.65;;;50.17;;
74908;SDS011;63468;52.058;4.824;2023-02-16T09:23:38;89.93;;;45.50;;
74908;SDS011;63468;52.058;4.824;2023-02-16T09:26:04;95.15;;;45.60;;
74908;SDS011;63468;52.058;4.824;2023-02-16T09:28:33;104.15;;;46.10;;
74908;SDS011;63468;52.058;4.824;2023-02-16T09:30:59;95.18;;;45.85;;
74908;SDS011;63468;52.058;4.824;2023-02-16T09:33:25;87.38;;;44.60;;
74908;SDS011;63468;52.058;4.824;2023-02-16T09:35:51;96.03;;;45.53;;
74908;SDS011;63468;52.058;4.824;2023-02-16T09:38:16;97.18;;;45.65;;
74908;SDS011;63468;52.058;4.824;2023-02-16T09:40:42;89.72;;;46.60;;
74908;SDS011;63468;52.058;4.824;2023-02-16T09:43:22;97.53;;;45.72;;
74908;SDS011;63468;52.058;4.824;2023-02-16T09:45:54;87.10;;;46.83;;
74908;SDS011;63468;52.058;4.824;2023-02-16T09:48:36;85.93;;;41.60;;
74908;SDS011;63468;52.058;4.824;2023-02-16T09:51:06;94.05;;;45.72;;
74908;SDS011;63468;52.058;4.824;2023-02-16T09:53:37;80.63;;;41.22;;
74908;SDS011;63468;52.058;4.824;2023-02-16T09:58:54;77.93;;;41.85;;
74908;SDS011;63468;52.058;4.824;2023-02-16T10:03:52;100.82;;;45.92;;
74908;SDS011;63468;52.058;4.824;2023-02-16T10:08:59;84.88;;;43.08;;
74908;SDS011;63468;52.058;4.824;2023-02-16T10:11:35;93.30;;;46.53;;
74908;SDS011;63468;52.058;4.824;2023-02-16T10:14:32;82.40;;;41.40;;
74908;SDS011;63468;52.058;4.824;2023-02-16T10:26:14;88.47;;;41.40;;
74908;SDS011;63468;52.058;4.824;2023-02-16T10:28:46;95.83;;;45.50;;
74908;SDS011;63468;52.058;4.824;2023-02-16T10:40:28;99.20;;;48.08;;
74908;SDS011;63468;52.058;4.824;2023-02-16T10:43:10;89.50;;;43.47;;
74908;SDS011;63468;52.058;4.824;2023-02-16T10:45:48;94.43;;;42.30;;
74908;SDS011;63468;52.058;4.824;2023-02-16T10:48:14;96.00;;;42.53;;
74908;SDS011;63468;52.058;4.824;2023-02-16T10:50:40;104.30;;;46.53;;
74908;SDS011;63468;52.058;4.824;2023-02-16T10:53:20;78.68;;;41.88;;
74908;SDS011;63468;52.058;4.824;2023-02-16T10:55:54;91.70;;;41.50;;
74908;SDS011;63468;52.058;4.824;2023-02-16T10:58:23;80.18;;;41.28;;
74908;SDS011;63468;52.058;4.824;2023-02-16T11:03:39;85.68;;;40.10;;
74908;SDS011;63468;52.058;4.824;2023-02-16T11:06:13;76.43;;;38.30;;
74908;SDS011;63468;52.058;4.824;2023-02-16T11:08:50;71.25;;;39.25;;
74908;SDS011;63468;52.058;4.824;2023-02-16T11:11:20;74.38;;;39.83;;
74908;SDS011;63468;52.058;4.824;2023-02-16T11:13:48;85.10;;;39.92;;
74908;SDS011;63468;52.058;4.824;2023-02-16T11:16:18;81.68;;;38.92;;
74908;SDS011;63468;52.058;4.824;2023-02-16T11:18:46;74.00;;;40.00;;
74908;SDS011;63468;52.058;4.824;2023-02-16T11:21:13;69.15;;;40.25;;
74908;SDS011;63468;52.058;4.824;2023-02-16T11:23:40;75.75;;;40.70;;
74908;SDS011;63468;52.058;4.824;2023-02-16T11:26:20;84.88;;;40.92;;
74908;SDS011;63468;52.058;4.824;2023-02-16T11:28:48;72.97;;;38.65;;
74908;SDS011;63468;52.058;4.824;2023-02-16T11:31:18;77.50;;;37.92;;
74908;SDS011;63468;52.058;4.824;2023-02-16T11:33:55;72.68;;;39.63;;
74908;SDS011;63468;52.058;4.824;2023-02-16T11:41:26;71.22;;;37.97;;
74908;SDS011;63468;52.058;4.824;2023-02-16T11:43:52;73.80;;;38.50;;
74908;SDS011;63468;52.058;4.824;2023-02-16T11:46:19;68.85;;;35.85;;
74908;SDS011;63468;52.058;4.824;2023-02-16T11:48:46;82.75;;;39.28;;
74908;SDS011;63468;52.058;4.824;2023-02-16T11:51:12;70.82;;;36.85;;
74908;SDS011;63468;52.058;4.824;2023-02-16T11:53:43;71.88;;;37.70;;
74908;SDS011;63468;52.058;4.824;2023-02-16T11:59:12;70.50;;;37.45;;
74908;SDS011;63468;52.058;4.824;2023-02-16T12:04:48;68.13;;;35.65;;
74908;SDS011;63468;52.058;4.824;2023-02-16T12:07:34;102.68;;;51.88;;
74908;SDS011;63468;52.058;4.824;2023-02-16T12:10:09;74.10;;;38.15;;
74908;SDS011;63468;52.058;4.824;2023-02-16T12:15:44;67.80;;;34.72;;
74908;SDS011;63468;52.058;4.824;2023-02-16T12:24:02;70.65;;;37.90;;
74908;SDS011;63468;52.058;4.824;2023-02-16T12:26:39;70.35;;;35.33;;
74908;SDS011;63468;52.058;4.824;2023-02-16T12:46:01;69.80;;;34.72;;
74908;SDS011;63468;52.058;4.824;2023-02-16T12:48:35;63.55;;;33.97;;
74908;SDS011;63468;52.058;4.824;2023-02-16T12:51:18;76.20;;;34.60;;
74908;SDS011;63468;52.058;4.824;2023-02-16T12:53:48;59.30;;;32.58;;
74908;SDS011;63468;52.058;4.824;2023-02-16T12:56:19;60.42;;;32.30;;
74908;SDS011;63468;52.058;4.824;2023-02-16T12:58:47;52.47;;;26.45;;
74908;SDS011;63468;52.058;4.824;2023-02-16T13:01:19;48.55;;;27.20;;
74908;SDS011;63468;52.058;4.824;2023-02-16T13:03:53;47.72;;;25.45;;
74908;SDS011;63468;52.058;4.824;2023-02-16T13:06:43;48.30;;;28.13;;
74908;SDS011;63468;52.058;4.824;2023-02-16T13:14:47;42.63;;;23.33;;
74908;SDS011;63468;52.058;4.824;2023-02-16T13:17:19;43.28;;;23.75;;
74908;SDS011;63468;52.058;4.824;2023-02-16T13:19:48;50.70;;;26.63;;
74908;SDS011;63468;52.058;4.824;2023-02-16T13:22:27;46.85;;;24.17;;
74908;SDS011;63468;52.058;4.824;2023-02-16T13:39:19;40.13;;;20.52;;
74908;SDS011;63468;52.058;4.824;2023-02-16T13:44:36;38.78;;;22.10;;
74908;SDS011;63468;52.058;4.824;2023-02-16T13:47:04;36.53;;;20.45;;
74908;SDS011;63468;52.058;4.824;2023-02-16T13:49:35;37.00;;;18.83;;
74908;SDS011;63468;52.058;4.824;2023-02-16T13:52:06;32.58;;;18.50;;
74908;SDS011;63468;52.058;4.824;2023-02-16T13:54:39;31.95;;;18.15;;
74908;SDS011;63468;52.058;4.824;2023-02-16T13:57:14;31.05;;;16.58;;
74908;SDS011;63468;52.058;4.824;2023-02-16T14:00:27;32.08;;;16.73;;
74908;SDS011;63468;52.058;4.824;2023-02-16T14:05:33;33.85;;;16.70;;
74908;SDS011;63468;52.058;4.824;2023-02-16T14:08:08;29.48;;;15.93;;
74908;SDS011;63468;52.058;4.824;2023-02-16T14:16:07;31.90;;;17.63;;
74908;SDS011;63468;52.058;4.824;2023-02-16T14:18:45;30.92;;;16.15;;
74908;SDS011;63468;52.058;4.824;2023-02-16T14:21:16;33.67;;;18.75;;
74908;SDS011;63468;52.058;4.824;2023-02-16T14:23:45;32.83;;;17.52;;
74908;SDS011;63468;52.058;4.824;2023-02-16T14:26:18;31.50;;;17.38;;
74908;SDS011;63468;52.058;4.824;2023-02-16T14:28:50;33.65;;;18.65;;
74908;SDS011;63468;52.058;4.824;2023-02-16T14:31:19;32.58;;;18.42;;
74908;SDS011;63468;52.058;4.824;2023-02-16T14:34:00;37.60;;;20.27;;
74908;SDS011;63468;52.058;4.824;2023-02-16T14:36:28;33.97;;;18.52;;
74908;SDS011;63468;52.058;4.824;2023-02-16T14:38:54;34.17;;;19.30;;
74908;SDS011;63468;52.058;4.824;2023-02-16T14:44:32;36.85;;;18.08;;
74908;SDS011;63468;52.058;4.824;2023-02-16T14:50:15;36.33;;;19.67;;
74908;SDS011;63468;52.058;4.824;2023-02-16T14:52:45;39.90;;;20.63;;
74908;SDS011;63468;52.058;4.824;2023-02-16T14:58:04;41.28;;;21.67;;
74908;SDS011;63468;52.058;4.824;2023-02-16T15:00:56;44.10;;;22.10;;
74908;SDS011;63468;52.058;4.824;2023-02-16T15:03:44;43.42;;;23.55;;
74908;SDS011;63468;52.058;4.824;2023-02-16T15:06:16;46.85;;;23.02;;
74908;SDS011;63468;52.058;4.824;2023-02-16T15:08:54;45.90;;;25.65;;
74908;SDS011;63468;52.058;4.824;2023-02-16T15:11:36;42.28;;;24.05;;
74908;SDS011;63468;52.058;4.824;2023-02-16T15:14:31;46.22;;;24.70;;
74908;SDS011;63468;52.058;4.824;2023-02-16T15:17:04;52.00;;;26.33;;
74908;SDS011;63468;52.058;4.824;2023-02-16T15:19:30;42.92;;;23.60;;
74908;SDS011;63468;52.058;4.824;2023-02-16T15:22:06;44.80;;;25.63;;
74908;SDS011;63468;52.058;4.824;2023-02-16T15:24:42;53.88;;;26.35;;
74908;SDS011;63468;52.058;4.824;2023-02-16T15:27:17;45.78;;;24.63;;
74908;SDS011;63468;52.058;4.824;2023-02-16T15:29:44;51.38;;;29.92;;
74908;SDS011;63468;52.058;4.824;2023-02-16T15:32:11;51.10;;;25.35;;
74908;SDS011;63468;52.058;4.824;2023-02-16T15:34:39;64.20;;;29.67;;
74908;SDS011;63468;52.058;4.824;2023-02-16T15:37:28;50.28;;;27.45;;
74908;SDS011;63468;52.058;4.824;2023-02-16T15:40:09;49.38;;;25.77;;
74908;SDS011;63468;52.058;4.824;2023-02-16T15:42:36;58.53;;;26.95;;
74908;SDS011;63468;52.058;4.824;2023-02-16T15:45:16;55.65;;;28.58;;
74908;SDS011;63468;52.058;4.824;2023-02-16T15:47:50;46.45;;;25.85;;
74908;SDS011;63468;52.058;4.824;2023-02-16T15:50:21;54.13;;;25.90;;
74908;SDS011;63468;52.058;4.824;2023-02-16T15:52:50;49.30;;;24.55;;
74908;SDS011;63468;52.058;4.824;2023-02-16T15:55:18;50.20;;;24.40;;
74908;SDS011;63468;52.058;4.824;2023-02-16T15:57:43;49.53;;;23.75;;
74908;SDS011;63468;52.058;4.824;2023-02-16T16:00:13;47.00;;;26.00;;
74908;SDS011;63468;52.058;4.824;2023-02-16T16:02:44;49.75;;;25.55;;
74908;SDS011;63468;52.058;4.824;2023-02-16T16:05:27;49.53;;;23.55;;
74908;SDS011;63468;52.058;4.824;2023-02-16T16:07:53;52.83;;;24.40;;
74908;SDS011;63468;52.058;4.824;2023-02-16T16:12:59;46.75;;;23.17;;
74908;SDS011;63468;52.058;4.824;2023-02-16T16:15:30;47.78;;;24.17;;
74908;SDS011;63468;52.058;4.824;2023-02-16T16:18:01;52.83;;;27.10;;
74908;SDS011;63468;52.058;4.824;2023-02-16T16:20:34;50.58;;;24.58;;
74908;SDS011;63468;52.058;4.824;2023-02-16T16:25:38;53.33;;;25.17;;
74908;SDS011;63468;52.058;4.824;2023-02-16T16:28:13;50.58;;;25.13;;
74908;SDS011;63468;52.058;4.824;2023-02-16T16:31:14;57.00;;;28.83;;
74908;SDS011;63468;52.058;4.824;2023-02-16T16:33:59;52.15;;;25.02;;
74908;SDS011;63468;52.058;4.824;2023-02-16T16:39:40;55.08;;;27.23;;
74908;SDS011;63468;52.058;4.824;2023-02-16T16:44:29;57.75;;;27.73;;
74908;SDS011;63468;52.058;4.824;2023-02-16T16:46:56;57.53;;;27.90;;
74908;SDS011;63468;52.058;4.824;2023-02-16T16:49:21;55.92;;;29.05;;
74908;SDS011;63468;52.058;4.824;2023-02-16T16:51:50;57.03;;;28.75;;
74908;SDS011;63468;52.058;4.824;2023-02-16T16:54:32;60.53;;;30.02;;
74908;SDS011;63468;52.058;4.824;2023-02-16T16:57:00;57.80;;;28.48;;
74908;SDS011;63468;52.058;4.824;2023-02-16T16:59:29;58.88;;;30.58;;